createdAt,value
2022-08-29T00:00:06.730Z,64.04
2022-08-29T00:01:06.726Z,64.65
2022-08-29T00:02:06.702Z,64.96
2022-08-29T00:03:08.538Z,64.79
2022-08-29T00:04:06.715Z,64.99
2022-08-29T00:05:06.659Z,64.99
2022-08-29T00:06:06.627Z,65.09
2022-08-29T00:07:06.627Z,65.29
2022-08-29T00:08:06.597Z,65.39
2022-08-29T00:09:06.588Z,65.50
2022-08-29T00:10:06.590Z,65.50
2022-08-29T00:11:06.559Z,65.90
2022-08-29T00:12:06.547Z,65.90
2022-08-29T00:13:06.547Z,65.80
2022-08-29T00:14:06.518Z,65.70
2022-08-29T00:15:07.530Z,65.83
2022-08-29T00:16:06.528Z,66.24
2022-08-29T00:17:06.501Z,66.03
2022-08-29T00:18:06.468Z,66.03
2022-08-29T00:19:06.458Z,66.03
2022-08-29T00:20:06.458Z,66.13
2022-08-29T00:21:06.438Z,66.13
2022-08-29T00:22:06.407Z,66.24
2022-08-29T00:23:06.420Z,66.13
2022-08-29T00:24:06.386Z,66.24
2022-08-29T00:25:06.400Z,66.13
2022-08-29T00:26:06.360Z,66.03
2022-08-29T00:27:06.349Z,65.96
2022-08-29T00:28:06.342Z,66.06
2022-08-29T00:29:06.317Z,66.47
2022-08-29T00:30:06.327Z,66.16
2022-08-29T00:31:06.279Z,66.37
2022-08-29T00:32:06.363Z,66.47
2022-08-29T00:33:06.282Z,66.37
2022-08-29T00:34:06.257Z,66.47
2022-08-29T00:35:06.269Z,66.67
2022-08-29T00:36:06.238Z,66.57
2022-08-29T00:37:06.218Z,66.37
2022-08-29T00:38:06.208Z,66.47
2022-08-29T00:39:09.231Z,66.57
2022-08-29T00:40:06.315Z,66.47
2022-08-29T00:41:06.171Z,66.77
2022-08-29T00:42:06.150Z,66.57
2022-08-29T00:43:06.160Z,66.47
2022-08-29T00:44:06.124Z,66.27
2022-08-29T00:45:06.121Z,66.37
2022-08-29T00:46:06.190Z,66.47
2022-08-29T00:47:06.081Z,66.50
2022-08-29T00:48:06.071Z,66.60
2022-08-29T00:49:06.052Z,66.80
2022-08-29T00:50:06.131Z,67.00
2022-08-29T00:51:06.030Z,67.03
2022-08-29T00:52:06.059Z,67.24
2022-08-29T00:53:05.991Z,67.65
2022-08-29T00:54:06.009Z,67.55
2022-08-29T00:55:05.994Z,67.68
2022-08-29T00:56:05.972Z,67.68
2022-08-29T00:57:05.962Z,67.88
2022-08-29T00:58:05.942Z,67.98
2022-08-29T00:59:05.912Z,68.08
2022-08-29T01:00:05.931Z,68.08
2022-08-29T01:01:05.929Z,67.88
2022-08-29T01:02:05.940Z,67.65
2022-08-29T01:03:05.883Z,67.44
2022-08-29T01:04:05.867Z,67.65
2022-08-29T01:05:05.890Z,67.75
2022-08-29T01:06:05.854Z,67.65
2022-08-29T01:07:05.826Z,67.55
2022-08-29T01:08:05.821Z,67.44
2022-08-29T01:09:05.793Z,67.55
2022-08-29T01:10:13.788Z,67.21
2022-08-29T01:11:06.772Z,67.34
2022-08-29T01:12:05.753Z,67.34
2022-08-29T01:13:05.743Z,67.24
2022-08-29T01:14:05.733Z,67.24
2022-08-29T01:15:05.727Z,67.34
2022-08-29T01:16:05.781Z,67.44
2022-08-29T01:17:05.698Z,67.55
2022-08-29T01:18:05.671Z,67.75
2022-08-29T01:19:05.663Z,67.88
2022-08-29T01:20:05.652Z,68.08
2022-08-29T01:21:05.655Z,68.19
2022-08-29T01:22:05.624Z,68.22
2022-08-29T01:23:05.614Z,68.52
2022-08-29T01:24:05.606Z,68.83
2022-08-29T01:25:05.585Z,68.83
2022-08-29T01:26:05.614Z,68.73
2022-08-29T01:27:05.553Z,69.13
2022-08-29T01:28:05.524Z,69.57
2022-08-29T01:29:05.542Z,69.78
2022-08-29T01:30:05.782Z,69.64
2022-08-29T01:31:05.535Z,69.43
2022-08-29T01:32:05.584Z,69.23
2022-08-29T01:33:05.494Z,69.37
2022-08-29T01:34:05.463Z,69.57
2022-08-29T01:35:05.455Z,69.81
2022-08-29T01:36:05.492Z,70.01
2022-08-29T01:37:05.416Z,70.21
2022-08-29T01:38:05.414Z,70.42
2022-08-29T01:39:05.405Z,70.42
2022-08-29T01:40:05.469Z,70.11
2022-08-29T01:41:05.408Z,69.98
2022-08-29T01:42:05.365Z,69.98
2022-08-29T01:43:05.345Z,70.08
2022-08-29T01:44:05.336Z,70.28
2022-08-29T01:45:05.327Z,70.48
2022-08-29T01:46:05.413Z,70.59
2022-08-29T01:47:05.296Z,70.48
2022-08-29T01:48:05.305Z,70.68
2022-08-29T01:49:05.266Z,70.72
2022-08-29T01:50:05.254Z,70.92
2022-08-29T01:51:05.261Z,71.12
2022-08-29T01:52:05.226Z,71.33
2022-08-29T01:53:05.226Z,71.12
2022-08-29T01:54:05.194Z,71.03
2022-08-29T01:55:05.188Z,70.99
2022-08-29T01:56:05.196Z,70.99
2022-08-29T01:57:07.612Z,70.79
2022-08-29T01:58:05.138Z,70.18
2022-08-29T01:59:05.149Z,69.78
2022-08-29T02:00:05.138Z,69.67
2022-08-29T02:01:05.143Z,70.08
2022-08-29T02:02:05.222Z,70.48
2022-08-29T02:03:05.088Z,70.89
2022-08-29T02:04:05.069Z,70.79
2022-08-29T02:05:05.058Z,70.79
2022-08-29T02:06:05.070Z,70.89
2022-08-29T02:07:07.303Z,70.79
2022-08-29T02:08:06.030Z,70.68
2022-08-29T02:09:05.008Z,70.18
2022-08-29T02:10:05.011Z,69.98
2022-08-29T02:11:05.002Z,69.87
2022-08-29T02:12:04.970Z,69.67
2022-08-29T02:13:04.979Z,69.67
2022-08-29T02:14:04.979Z,69.37
2022-08-29T02:15:04.928Z,69.37
2022-08-29T02:16:04.987Z,69.67
2022-08-29T02:17:04.898Z,69.67
2022-08-29T02:18:04.890Z,69.91
2022-08-29T02:19:04.867Z,69.70
2022-08-29T02:20:04.860Z,69.91
2022-08-29T02:21:04.868Z,70.01
2022-08-29T02:22:04.830Z,69.91
2022-08-29T02:23:04.820Z,70.35
2022-08-29T02:24:23.897Z,70.55
2022-08-29T02:25:05.801Z,70.65
2022-08-29T02:26:04.812Z,70.75
2022-08-29T02:27:04.784Z,71.16
2022-08-29T02:28:04.750Z,71.16
2022-08-29T02:29:04.738Z,70.96
2022-08-29T02:30:04.730Z,71.06
2022-08-29T02:31:04.820Z,71.06
2022-08-29T02:32:04.700Z,71.06
2022-08-29T02:33:05.362Z,71.16
2022-08-29T02:34:04.671Z,71.26
2022-08-29T02:35:04.683Z,71.36
2022-08-29T02:36:04.668Z,71.57
2022-08-29T02:37:04.622Z,71.67
2022-08-29T02:38:04.620Z,71.87
2022-08-29T02:39:04.648Z,71.77
2022-08-29T02:40:04.624Z,71.67
2022-08-29T02:41:04.611Z,71.87
2022-08-29T02:42:04.570Z,71.57
2022-08-29T02:43:04.552Z,71.47
2022-08-29T02:44:04.540Z,71.50
2022-08-29T02:45:04.522Z,71.70
2022-08-29T02:46:04.528Z,71.91
2022-08-29T02:47:04.544Z,71.91
2022-08-29T02:48:04.492Z,71.70
2022-08-29T02:49:04.462Z,71.80
2022-08-29T02:50:04.467Z,71.67
2022-08-29T02:51:04.469Z,71.36
2022-08-29T02:52:04.431Z,71.47
2022-08-29T02:53:04.432Z,71.36
2022-08-29T02:54:04.409Z,71.26
2022-08-29T02:55:04.404Z,71.36
2022-08-29T02:56:04.401Z,71.70
2022-08-29T02:57:04.352Z,71.60
2022-08-29T02:58:04.363Z,71.40
2022-08-29T02:59:04.333Z,71.40
2022-08-29T03:00:04.332Z,71.40
2022-08-29T03:01:04.437Z,71.30
2022-08-29T03:02:04.362Z,71.30
2022-08-29T03:03:04.273Z,71.16
2022-08-29T03:04:04.274Z,71.16
2022-08-29T03:05:04.273Z,71.06
2022-08-29T03:06:04.294Z,71.06
2022-08-29T03:07:04.215Z,71.16
2022-08-29T03:08:04.222Z,71.06
2022-08-29T03:09:04.221Z,70.86
2022-08-29T03:10:04.248Z,70.65
2022-08-29T03:11:04.193Z,70.55
2022-08-29T03:12:04.173Z,70.86
2022-08-29T03:13:04.132Z,71.06
2022-08-29T03:14:04.166Z,71.19
2022-08-29T03:15:04.145Z,71.16
2022-08-29T03:16:04.206Z,71.06
2022-08-29T03:17:04.104Z,71.06
2022-08-29T03:18:04.099Z,71.19
2022-08-29T03:19:04.078Z,71.30
2022-08-29T03:20:04.087Z,71.19
2022-08-29T03:21:04.045Z,71.50
2022-08-29T03:22:04.065Z,71.60
2022-08-29T03:23:04.024Z,71.70
2022-08-29T03:24:04.127Z,72.01
2022-08-29T03:25:04.057Z,72.21
2022-08-29T03:26:04.019Z,72.11
2022-08-29T03:27:03.964Z,71.91
2022-08-29T03:28:03.955Z,71.80
2022-08-29T03:29:03.945Z,71.60
2022-08-29T03:30:04.375Z,71.60
2022-08-29T03:31:03.981Z,71.80
2022-08-29T03:32:03.923Z,71.60
2022-08-29T03:33:03.885Z,71.40
2022-08-29T03:34:03.866Z,71.40
2022-08-29T03:35:03.855Z,71.40
2022-08-29T03:36:03.847Z,71.30
2022-08-29T03:37:03.856Z,71.30
2022-08-29T03:38:03.823Z,71.40
2022-08-29T03:39:03.795Z,71.43
2022-08-29T03:40:03.846Z,71.53
2022-08-29T03:41:03.776Z,71.53
2022-08-29T03:42:03.798Z,71.64
2022-08-29T03:43:03.785Z,71.84
2022-08-29T03:44:03.756Z,71.73
2022-08-29T03:45:03.717Z,71.84
2022-08-29T03:46:03.787Z,71.94
2022-08-29T03:47:03.716Z,71.94
2022-08-29T03:48:03.686Z,71.84
2022-08-29T03:49:03.668Z,71.73
2022-08-29T03:50:03.656Z,71.84
2022-08-29T03:51:03.637Z,72.04
2022-08-29T03:52:03.656Z,72.08
2022-08-29T03:53:03.619Z,72.28
2022-08-29T03:54:03.617Z,71.97
2022-08-29T03:55:03.618Z,71.94
2022-08-29T03:56:03.591Z,72.28
2022-08-29T03:57:03.586Z,72.28
2022-08-29T03:58:03.561Z,72.34
2022-08-29T03:59:03.540Z,72.38
2022-08-29T04:00:03.568Z,72.28
2022-08-29T04:01:03.511Z,72.28
2022-08-29T04:02:03.596Z,72.14
2022-08-29T04:03:03.573Z,72.14
2022-08-29T04:04:03.489Z,72.04
2022-08-29T04:05:07.687Z,71.84
2022-08-29T04:06:03.457Z,71.84
2022-08-29T04:07:03.450Z,71.94
2022-08-29T04:08:03.429Z,71.94
2022-08-29T04:09:03.417Z,72.04
2022-08-29T04:10:03.414Z,71.94
2022-08-29T04:11:03.379Z,71.87
2022-08-29T04:12:03.387Z,71.97
2022-08-29T04:13:03.347Z,72.28
2022-08-29T04:14:03.346Z,72.58
2022-08-29T04:15:03.328Z,72.78
2022-08-29T04:16:03.323Z,72.69
2022-08-29T04:17:03.326Z,72.89
2022-08-29T04:18:03.308Z,72.78
2022-08-29T04:19:03.268Z,72.99
2022-08-29T04:20:03.267Z,73.19
2022-08-29T04:21:03.250Z,73.33
2022-08-29T04:22:03.248Z,73.33
2022-08-29T04:23:03.218Z,73.43
2022-08-29T04:24:03.211Z,73.43
2022-08-29T04:25:03.186Z,73.43
2022-08-29T04:26:27.114Z,73.33
2022-08-29T04:27:04.182Z,73.33
2022-08-29T04:28:03.149Z,73.23
2022-08-29T04:29:03.138Z,73.13
2022-08-29T04:30:03.169Z,73.02
2022-08-29T04:31:03.155Z,73.23
2022-08-29T04:32:10.290Z,73.43
2022-08-29T04:33:03.082Z,73.33
2022-08-29T04:34:03.072Z,73.33
2022-08-29T04:35:03.061Z,73.33
2022-08-29T04:36:03.050Z,73.33
2022-08-29T04:37:03.064Z,73.43
2022-08-29T04:38:03.023Z,73.54
2022-08-29T04:39:02.998Z,73.64
2022-08-29T04:40:03.106Z,73.64
2022-08-29T04:41:02.979Z,73.43
2022-08-29T04:42:02.992Z,73.33
2022-08-29T04:43:02.951Z,73.23
2022-08-29T04:44:02.939Z,73.33
2022-08-29T04:45:02.931Z,73.67
2022-08-29T04:46:02.962Z,73.97
2022-08-29T04:47:02.920Z,73.77
2022-08-29T04:48:03.795Z,73.43
2022-08-29T04:49:04.480Z,73.54
2022-08-29T04:50:02.858Z,73.64
2022-08-29T04:51:02.849Z,73.33
2022-08-29T04:52:02.851Z,73.02
2022-08-29T04:53:02.821Z,73.13
2022-08-29T04:54:02.804Z,73.13
2022-08-29T04:55:02.803Z,73.23
2022-08-29T04:56:02.773Z,73.33
2022-08-29T04:57:02.794Z,73.57
2022-08-29T04:58:03.151Z,73.77
2022-08-29T04:59:02.742Z,74.08
2022-08-29T05:00:02.730Z,74.15
2022-08-29T05:01:02.711Z,73.94
2022-08-29T05:02:02.717Z,74.04
2022-08-29T05:03:02.754Z,74.15
2022-08-29T05:04:02.665Z,74.04
2022-08-29T05:05:02.665Z,74.15
2022-08-29T05:06:02.652Z,74.04
2022-08-29T05:07:02.632Z,73.94
2022-08-29T05:08:02.632Z,73.94
2022-08-29T05:09:02.623Z,74.04
2022-08-29T05:10:02.582Z,74.04
2022-08-29T05:11:02.583Z,74.15
2022-08-29T05:12:05.005Z,74.04
2022-08-29T05:13:02.570Z,74.04
2022-08-29T05:14:02.545Z,74.25
2022-08-29T05:15:02.527Z,74.25
2022-08-29T05:16:02.619Z,73.71
2022-08-29T05:17:02.516Z,73.10
2022-08-29T05:18:02.494Z,72.69
2022-08-29T05:19:02.482Z,72.28
2022-08-29T05:20:02.462Z,72.08
2022-08-29T05:21:02.450Z,71.64
2022-08-29T05:22:02.424Z,71.23
2022-08-29T05:23:02.443Z,70.82
2022-08-29T05:24:02.393Z,70.41
2022-08-29T05:25:02.394Z,70.01
2022-08-29T05:26:02.381Z,70.01
2022-08-29T05:27:02.364Z,70.01
2022-08-29T05:28:02.363Z,70.10
2022-08-29T05:29:02.340Z,70.31
2022-08-29T05:30:02.314Z,70.41
2022-08-29T05:31:02.396Z,70.41
2022-08-29T05:32:02.294Z,70.62
2022-08-29T05:33:02.304Z,70.72
2022-08-29T05:34:02.281Z,70.82
2022-08-29T05:35:03.254Z,70.92
2022-08-29T05:36:02.244Z,71.02
2022-08-29T05:37:02.245Z,71.12
2022-08-29T05:38:05.850Z,71.23
2022-08-29T05:39:03.203Z,71.23
2022-08-29T05:40:02.228Z,71.33
2022-08-29T05:41:02.181Z,71.23
2022-08-29T05:42:02.172Z,71.12
2022-08-29T05:43:02.175Z,71.23
2022-08-29T05:44:02.125Z,71.23
2022-08-29T05:45:02.132Z,71.23
2022-08-29T05:46:02.178Z,71.23
2022-08-29T05:47:02.104Z,71.19
2022-08-29T05:48:02.094Z,71.19
2022-08-29T05:49:02.081Z,71.30
2022-08-29T05:50:02.062Z,71.30
2022-08-29T05:51:02.052Z,71.09
2022-08-29T05:52:02.025Z,71.09
2022-08-29T05:53:02.046Z,71.19
2022-08-29T05:54:01.994Z,70.99
2022-08-29T05:55:01.986Z,70.99
2022-08-29T05:56:01.974Z,71.19
2022-08-29T05:57:01.972Z,71.26
2022-08-29T05:58:01.965Z,71.16
2022-08-29T05:59:01.930Z,71.16
2022-08-29T06:00:01.915Z,71.06
2022-08-29T06:01:01.907Z,70.75
2022-08-29T06:02:01.884Z,70.65
2022-08-29T06:03:01.989Z,70.55
2022-08-29T06:04:02.022Z,70.45
2022-08-29T06:05:01.860Z,70.75
2022-08-29T06:06:01.835Z,70.86
2022-08-29T06:07:01.837Z,71.16
2022-08-29T06:08:01.835Z,71.26
2022-08-29T06:09:01.806Z,71.06
2022-08-29T06:10:03.917Z,70.92
2022-08-29T06:11:01.776Z,70.92
2022-08-29T06:12:01.776Z,71.03
2022-08-29T06:13:01.759Z,70.92
2022-08-29T06:14:01.763Z,70.72
2022-08-29T06:15:01.734Z,70.52
2022-08-29T06:16:01.745Z,70.18
2022-08-29T06:17:01.696Z,70.08
2022-08-29T06:18:01.690Z,70.08
2022-08-29T06:19:01.769Z,70.28
2022-08-29T06:20:01.664Z,70.08
2022-08-29T06:21:01.655Z,69.78
2022-08-29T06:22:01.626Z,69.87
2022-08-29T06:23:01.616Z,69.98
2022-08-29T06:24:01.617Z,70.18
2022-08-29T06:25:08.703Z,70.28
2022-08-29T06:26:02.567Z,70.25
2022-08-29T06:27:01.560Z,70.35
2022-08-29T06:28:01.547Z,70.15
2022-08-29T06:29:01.567Z,69.95
2022-08-29T06:30:02.109Z,69.81
2022-08-29T06:31:01.587Z,69.40
2022-08-29T06:32:01.497Z,69.40
2022-08-29T06:33:01.484Z,69.51
2022-08-29T06:34:01.489Z,69.40
2022-08-29T06:35:01.466Z,69.07
2022-08-29T06:36:01.438Z,68.96
2022-08-29T06:37:01.427Z,68.87
2022-08-29T06:38:01.441Z,68.96
2022-08-29T06:39:01.426Z,69.24
2022-08-29T06:40:01.413Z,69.03
2022-08-29T06:41:01.378Z,69.13
2022-08-29T06:42:01.360Z,69.03
2022-08-29T06:43:01.348Z,68.83
2022-08-29T06:44:01.353Z,68.90
2022-08-29T06:45:01.342Z,68.60
2022-08-29T06:46:01.327Z,68.29
2022-08-29T06:47:01.308Z,67.89
2022-08-29T06:48:01.288Z,67.65
2022-08-29T06:49:01.290Z,67.65
2022-08-29T06:50:01.258Z,67.55
2022-08-29T06:51:01.249Z,67.76
2022-08-29T06:52:01.289Z,68.06
2022-08-29T06:53:20.651Z,67.55
2022-08-29T06:54:02.329Z,67.45
2022-08-29T06:55:01.179Z,66.41
2022-08-29T06:56:01.177Z,65.70
2022-08-29T06:57:01.170Z,66.30
2022-08-29T06:58:01.149Z,66.41
2022-08-29T06:59:01.159Z,66.71
2022-08-29T07:00:01.128Z,67.59
2022-08-29T07:01:02.172Z,66.44
2022-08-29T07:02:01.128Z,65.27
2022-08-29T07:03:01.180Z,63.62
2022-08-29T07:04:01.089Z,61.98
2022-08-29T07:05:01.063Z,61.75
2022-08-29T07:06:01.049Z,62.05
2022-08-29T07:07:01.041Z,61.35
2022-08-29T07:08:01.026Z,61.55
2022-08-29T07:09:01.030Z,62.45
2022-08-29T07:10:00.991Z,61.21
2022-08-29T07:11:00.981Z,60.51
2022-08-29T07:12:00.969Z,61.72
2022-08-29T07:13:00.991Z,61.49
2022-08-29T07:14:00.981Z,60.38
2022-08-29T07:15:00.930Z,60.48
2022-08-29T07:16:01.074Z,60.68
2022-08-29T07:17:00.900Z,60.35
2022-08-29T07:18:00.894Z,60.05
2022-08-29T07:19:00.893Z,59.84
2022-08-29T07:20:00.860Z,59.72
2022-08-29T07:21:00.861Z,59.22
2022-08-29T07:22:00.832Z,59.64
2022-08-29T07:23:00.832Z,60.35
2022-08-29T07:24:00.811Z,59.84
2022-08-29T07:25:00.791Z,59.75
2022-08-29T07:26:00.772Z,59.57
2022-08-29T07:27:00.774Z,60.81
2022-08-29T07:28:00.752Z,61.52
2022-08-29T07:29:00.752Z,61.59
2022-08-29T07:30:00.721Z,61.49
2022-08-29T07:31:00.747Z,61.18
2022-08-29T07:32:00.692Z,60.98
2022-08-29T07:33:00.702Z,60.75
2022-08-29T07:34:02.816Z,60.02
2022-08-29T07:35:00.771Z,59.59
2022-08-29T07:36:01.252Z,59.19
2022-08-29T07:37:00.645Z,59.08
2022-08-29T07:38:00.622Z,58.28
2022-08-29T07:39:00.630Z,59.08
2022-08-29T07:40:00.760Z,59.08
2022-08-29T07:41:00.592Z,59.19
2022-08-29T07:42:00.572Z,58.88
2022-08-29T07:43:00.571Z,59.39
2022-08-29T07:44:00.557Z,59.59
2022-08-29T07:45:00.536Z,59.16
2022-08-29T07:46:00.555Z,58.75
2022-08-29T07:47:00.518Z,58.33
2022-08-29T07:48:00.494Z,58.33
2022-08-29T07:49:00.509Z,58.02
2022-08-29T07:50:00.468Z,57.82
2022-08-29T07:51:00.444Z,58.55
2022-08-29T07:52:00.434Z,58.15
2022-08-29T07:53:00.514Z,58.98
2022-08-29T07:54:00.423Z,59.28
2022-08-29T07:55:00.395Z,59.69
2022-08-29T07:56:00.385Z,59.99
2022-08-29T07:57:00.365Z,59.69
2022-08-29T07:58:00.355Z,59.56
2022-08-29T07:59:00.373Z,59.69
2022-08-29T08:00:00.326Z,59.48
2022-08-29T08:01:00.373Z,59.08
2022-08-29T08:02:00.440Z,59.42
2022-08-29T08:03:00.353Z,60.12
2022-08-29T08:04:00.286Z,60.63
2022-08-29T08:05:00.265Z,61.56
2022-08-29T08:06:00.245Z,61.46
2022-08-29T08:07:01.239Z,61.16
2022-08-29T08:08:05.251Z,61.36
2022-08-29T08:09:01.226Z,61.46
2022-08-29T08:10:00.196Z,61.16
2022-08-29T08:11:00.186Z,61.46
2022-08-29T08:12:01.497Z,61.99
2022-08-29T08:13:00.162Z,61.79
2022-08-29T08:14:00.144Z,61.66
2022-08-29T08:15:00.127Z,61.86
2022-08-29T08:16:00.117Z,62.06
2022-08-29T08:17:00.217Z,62.06
2022-08-29T08:18:00.120Z,61.96
2022-08-29T08:19:00.110Z,61.86
2022-08-29T08:20:00.057Z,62.57
2022-08-29T08:21:00.052Z,62.46
2022-08-29T08:22:00.046Z,61.56
2022-08-29T08:23:00.031Z,61.86
2022-08-29T08:24:00.030Z,62.16
2022-08-29T08:24:59.999Z,62.37
2022-08-29T08:25:59.977Z,62.06
2022-08-29T08:26:59.991Z,61.93
2022-08-29T08:27:59.946Z,62.34
2022-08-29T08:28:59.960Z,62.54
2022-08-29T08:30:00.082Z,61.83
2022-08-29T08:31:05.192Z,61.53
2022-08-29T08:32:00.892Z,61.33
2022-08-29T08:32:59.892Z,61.23
2022-08-29T08:33:59.897Z,60.39
2022-08-29T08:34:59.869Z,60.39
2022-08-29T08:35:59.840Z,60.49
2022-08-29T08:36:59.839Z,60.60
2022-08-29T08:37:59.809Z,60.09
2022-08-29T08:38:59.811Z,60.19
2022-08-29T08:39:59.814Z,60.60
2022-08-29T08:40:59.780Z,60.57
2022-08-29T08:41:59.761Z,60.77
2022-08-29T08:42:59.750Z,59.76
2022-08-29T08:43:59.741Z,59.16
2022-08-29T08:44:59.702Z,59.26
2022-08-29T08:45:59.743Z,59.43
2022-08-29T08:46:59.690Z,59.53
2022-08-29T08:47:59.689Z,59.74
2022-08-29T08:48:59.667Z,59.74
2022-08-29T08:49:59.681Z,59.91
2022-08-29T08:50:59.651Z,58.70
2022-08-29T08:51:59.634Z,58.60
2022-08-29T08:52:59.622Z,58.70
2022-08-29T08:53:59.602Z,58.97
2022-08-29T08:54:59.611Z,58.67
2022-08-29T08:55:59.572Z,58.27
2022-08-29T08:57:02.081Z,58.24
2022-08-29T08:57:59.544Z,58.34
2022-08-29T08:58:59.553Z,58.44
2022-08-29T08:59:59.533Z,57.91
2022-08-29T09:00:59.624Z,58.01
2022-08-29T09:01:59.564Z,57.01
2022-08-29T09:03:00.491Z,57.01
2022-08-29T09:03:59.483Z,56.78
2022-08-29T09:04:59.453Z,56.08
2022-08-29T09:05:59.453Z,56.18
2022-08-29T09:06:59.427Z,55.47
2022-08-29T09:07:59.421Z,56.28
2022-08-29T09:08:59.413Z,56.28
2022-08-29T09:09:59.392Z,55.98
2022-08-29T09:10:59.435Z,56.28
2022-08-29T09:11:59.363Z,55.98
2022-08-29T09:12:59.344Z,55.58
2022-08-29T09:13:59.362Z,55.58
2022-08-29T09:14:59.329Z,55.38
2022-08-29T09:15:59.315Z,55.38
2022-08-29T09:16:59.363Z,55.58
2022-08-29T09:17:59.285Z,54.85
2022-08-29T09:18:59.285Z,54.88
2022-08-29T09:19:59.263Z,55.35
2022-08-29T09:20:59.236Z,55.35
2022-08-29T09:21:59.238Z,54.75
2022-08-29T09:22:59.216Z,54.55
2022-08-29T09:23:59.226Z,54.55
2022-08-29T09:24:59.187Z,54.45
2022-08-29T09:25:59.165Z,54.65
2022-08-29T09:26:59.145Z,55.13
2022-08-29T09:27:59.166Z,55.32
2022-08-29T09:28:59.148Z,54.52
2022-08-29T09:29:59.131Z,54.02
2022-08-29T09:30:59.098Z,54.12
2022-08-29T09:31:59.185Z,54.72
2022-08-29T09:32:59.067Z,54.93
2022-08-29T09:33:59.077Z,54.43
2022-08-29T09:35:08.931Z,54.43
2022-08-29T09:36:00.037Z,53.62
2022-08-29T09:36:59.027Z,53.32
2022-08-29T09:37:59.020Z,52.92
2022-08-29T09:38:59.028Z,52.92
2022-08-29T09:39:59.073Z,52.92
2022-08-29T09:40:58.981Z,53.52
2022-08-29T09:41:58.958Z,53.42
2022-08-29T09:42:58.948Z,53.62
2022-08-29T09:43:58.939Z,54.52
2022-08-29T09:44:58.949Z,54.22
2022-08-29T09:45:58.934Z,54.32
2022-08-29T09:46:58.897Z,54.00
2022-08-29T09:47:58.889Z,53.89
2022-08-29T09:48:58.868Z,53.59
2022-08-29T09:49:58.879Z,53.39
2022-08-29T09:50:58.837Z,53.09
2022-08-29T09:51:58.830Z,53.30
2022-08-29T09:52:58.818Z,53.09
2022-08-29T09:53:58.799Z,53.69
2022-08-29T09:54:58.809Z,54.00
2022-08-29T09:55:58.780Z,54.17
2022-08-29T09:56:58.762Z,53.37
2022-08-29T09:57:58.762Z,53.17
2022-08-29T09:58:58.739Z,52.27
2022-08-29T09:59:58.747Z,52.37
2022-08-29T10:00:58.738Z,52.87
2022-08-29T10:01:58.726Z,53.77
2022-08-29T10:02:58.670Z,52.17
2022-08-29T10:03:58.672Z,53.34
2022-08-29T10:04:58.678Z,52.34
2022-08-29T10:05:58.651Z,51.74
2022-08-29T10:06:58.621Z,52.44
2022-08-29T10:07:58.622Z,52.14
2022-08-29T10:08:58.611Z,52.74
2022-08-29T10:09:58.661Z,53.05
2022-08-29T10:10:58.572Z,52.72
2022-08-29T10:11:58.571Z,52.42
2022-08-29T10:12:58.542Z,52.52
2022-08-29T10:13:58.540Z,51.92
2022-08-29T10:14:58.642Z,51.69
2022-08-29T10:15:58.509Z,50.99
2022-08-29T10:16:58.556Z,51.79
2022-08-29T10:17:58.492Z,51.09
2022-08-29T10:18:58.466Z,51.20
2022-08-29T10:19:58.642Z,51.20
2022-08-29T10:20:58.451Z,52.00
2022-08-29T10:21:58.430Z,51.69
2022-08-29T10:22:58.416Z,52.07
2022-08-29T10:23:58.401Z,51.77
2022-08-29T10:24:58.404Z,51.07
2022-08-29T10:25:58.383Z,50.87
2022-08-29T10:26:58.365Z,50.95
2022-08-29T10:27:58.364Z,51.04
2022-08-29T10:28:58.334Z,50.95
2022-08-29T10:29:58.342Z,50.24
2022-08-29T10:30:58.314Z,50.04
2022-08-29T10:31:58.348Z,50.84
2022-08-29T10:32:58.275Z,50.35
2022-08-29T10:33:58.278Z,50.52
2022-08-29T10:34:58.275Z,50.02
2022-08-29T10:35:58.254Z,49.62
2022-08-29T10:36:58.226Z,50.12
2022-08-29T10:37:58.224Z,50.32
2022-08-29T10:38:58.208Z,50.02
2022-08-29T10:39:58.299Z,49.92
2022-08-29T10:40:58.185Z,49.82
2022-08-29T10:41:58.170Z,49.22
2022-08-29T10:42:58.148Z,50.12
2022-08-29T10:43:58.150Z,49.80
2022-08-29T10:44:58.135Z,49.10
2022-08-29T10:45:58.181Z,48.40
2022-08-29T10:46:58.111Z,49.00
2022-08-29T10:47:58.096Z,49.80
2022-08-29T10:48:58.067Z,49.50
2022-08-29T10:49:58.077Z,49.30
2022-08-29T10:50:58.044Z,49.60
2022-08-29T10:51:58.057Z,49.08
2022-08-29T10:52:58.018Z,48.88
2022-08-29T10:53:58.008Z,48.58
2022-08-29T10:54:57.989Z,49.08
2022-08-29T10:55:58.019Z,47.78
2022-08-29T10:56:57.968Z,47.96
2022-08-29T10:57:57.960Z,47.45
2022-08-29T10:58:57.931Z,48.05
2022-08-29T10:59:57.929Z,47.66
2022-08-29T11:00:57.984Z,47.66
2022-08-29T11:01:57.899Z,47.96
2022-08-29T11:02:57.888Z,47.56
2022-08-29T11:03:57.933Z,47.75
2022-08-29T11:04:57.857Z,48.05
2022-08-29T11:05:57.870Z,47.74
2022-08-29T11:06:57.845Z,47.03
2022-08-29T11:07:57.869Z,46.94
2022-08-29T11:08:57.814Z,47.63
2022-08-29T11:09:57.790Z,47.53
2022-08-29T11:10:57.791Z,47.14
2022-08-29T11:11:57.772Z,47.14
2022-08-29T11:12:57.759Z,47.51
2022-08-29T11:14:00.229Z,47.41
2022-08-29T11:14:57.733Z,46.51
2022-08-29T11:15:57.788Z,45.92
2022-08-29T11:16:57.702Z,45.92
2022-08-29T11:17:58.723Z,45.72
2022-08-29T11:18:57.672Z,45.72
2022-08-29T11:19:57.673Z,45.12
2022-08-29T11:20:57.669Z,44.92
2022-08-29T11:21:57.680Z,45.12
2022-08-29T11:22:57.630Z,44.53
2022-08-29T11:23:57.623Z,44.53
2022-08-29T11:24:57.601Z,44.53
2022-08-29T11:25:57.627Z,46.01
2022-08-29T11:26:57.581Z,46.01
2022-08-29T11:27:57.585Z,46.22
2022-08-29T11:28:57.545Z,46.12
2022-08-29T11:29:57.543Z,46.72
2022-08-29T11:30:57.534Z,46.42
2022-08-29T11:31:57.583Z,45.70
2022-08-29T11:32:57.494Z,45.70
2022-08-29T11:33:57.493Z,45.79
2022-08-29T11:34:57.464Z,45.30
2022-08-29T11:36:01.143Z,45.30
2022-08-29T11:36:58.434Z,45.20
2022-08-29T11:37:57.433Z,45.10
2022-08-29T11:38:57.425Z,45.40
2022-08-29T11:39:57.453Z,45.10
2022-08-29T11:41:58.753Z,45.48
2022-08-29T11:42:57.356Z,45.97
2022-08-29T11:43:57.374Z,45.67
2022-08-29T11:44:57.336Z,45.48
2022-08-29T11:45:57.336Z,45.37
2022-08-29T11:46:57.716Z,43.88
2022-08-29T11:47:57.346Z,44.28
2022-08-29T11:48:59.797Z,44.18
2022-08-29T11:49:57.259Z,43.88
2022-08-29T11:50:57.287Z,43.88
2022-08-29T11:51:57.255Z,45.18
2022-08-29T11:52:57.217Z,44.58
2022-08-29T11:53:57.219Z,44.18
2022-08-29T11:54:57.207Z,43.88
2022-08-29T11:55:57.208Z,43.88
2022-08-29T11:56:57.178Z,43.79
2022-08-29T11:58:01.766Z,45.57
2022-08-29T11:58:58.150Z,45.37
2022-08-29T11:59:57.310Z,45.57
2022-08-29T12:00:57.147Z,45.26
2022-08-29T12:01:57.159Z,45.36
2022-08-29T12:02:57.099Z,43.76
2022-08-29T12:03:57.098Z,43.57
2022-08-29T12:04:57.070Z,43.37
2022-08-29T12:05:57.079Z,43.96
2022-08-29T12:06:57.047Z,45.26
2022-08-29T12:07:58.516Z,44.96
2022-08-29T12:08:57.768Z,45.03
2022-08-29T12:09:57.010Z,45.03
2022-08-29T12:10:57.006Z,44.34
2022-08-29T12:11:57.008Z,44.44
2022-08-29T12:12:56.972Z,43.92
2022-08-29T12:13:56.951Z,43.62
2022-08-29T12:14:56.941Z,43.52
2022-08-29T12:15:56.983Z,43.72
2022-08-29T12:16:56.929Z,43.30
2022-08-29T12:18:04.416Z,43.90
2022-08-29T12:18:57.891Z,44.59
2022-08-29T12:19:56.885Z,43.80
2022-08-29T12:20:57.004Z,43.60
2022-08-29T12:21:56.863Z,43.58
2022-08-29T12:22:56.834Z,42.79
2022-08-29T12:23:56.820Z,42.31
2022-08-29T12:24:57.942Z,42.21
2022-08-29T12:26:16.250Z,42.31
2022-08-29T12:26:57.802Z,42.61
2022-08-29T12:27:56.921Z,42.79
2022-08-29T12:28:56.753Z,42.58
2022-08-29T12:29:56.772Z,42.79
2022-08-29T12:30:56.724Z,42.79
2022-08-29T12:32:18.018Z,42.69
2022-08-29T12:32:57.695Z,42.77
2022-08-29T12:33:56.775Z,41.77
2022-08-29T12:34:56.784Z,41.87
2022-08-29T12:35:56.662Z,41.67
2022-08-29T12:36:56.656Z,42.37
2022-08-29T12:37:56.643Z,41.55
2022-08-29T12:38:56.614Z,42.15
2022-08-29T12:39:56.648Z,42.25
2022-08-29T12:40:56.596Z,42.25
2022-08-29T12:41:56.605Z,41.66
2022-08-29T12:42:56.566Z,41.75
2022-08-29T12:43:56.563Z,41.75
2022-08-29T12:44:56.539Z,41.55
2022-08-29T12:45:56.612Z,41.55
2022-08-29T12:46:56.600Z,40.76
2022-08-29T12:47:56.506Z,40.56
2022-08-29T12:48:58.058Z,40.76
2022-08-29T12:49:56.476Z,40.47
2022-08-29T12:50:56.467Z,40.78
2022-08-29T12:51:56.475Z,41.06
2022-08-29T12:52:56.437Z,41.58